createdAt,value
2022-08-22T00:00:15.978Z,18.25
2022-08-22T00:02:53.685Z,19.20
2022-08-22T00:02:56.264Z,19.19
2022-08-22T00:02:59.185Z,18.31
2022-08-22T00:03:11.562Z,18.36
2022-08-22T00:04:02.153Z,18.23
2022-08-22T00:07:11.444Z,18.19
2022-08-22T00:10:31.455Z,18.13
2022-08-22T00:14:01.316Z,18.15
2022-08-22T00:17:30.183Z,18.14
2022-08-22T00:20:39.230Z,18.14
2022-08-22T00:23:57.019Z,18.19
2022-08-22T00:27:07.714Z,18.18
2022-08-22T00:30:14.234Z,18.23
2022-08-22T00:33:34.670Z,18.27
2022-08-22T00:36:48.145Z,18.28
2022-08-22T00:40:35.982Z,18.26
2022-08-22T00:44:07.744Z,18.27
2022-08-22T00:47:58.414Z,18.23
2022-08-22T00:51:25.529Z,18.25
2022-08-22T00:54:37.622Z,18.27
2022-08-22T00:57:52.631Z,18.25
2022-08-22T01:01:03.600Z,18.24
2022-08-22T01:04:23.755Z,18.22
2022-08-22T01:08:01.433Z,18.14
2022-08-22T01:15:10.013Z,18.17
2022-08-22T01:18:38.739Z,18.18
2022-08-22T01:21:50.941Z,18.14
2022-08-22T01:25:38.585Z,18.08
2022-08-22T01:29:00.128Z,18.09
2022-08-22T01:32:21.427Z,18.13
2022-08-22T01:35:37.343Z,18.19
2022-08-22T01:38:53.016Z,18.23
2022-08-22T01:42:15.210Z,18.27
2022-08-22T01:46:10.819Z,18.24
2022-08-22T01:49:16.272Z,18.22
2022-08-22T01:52:59.140Z,18.25
2022-08-22T01:56:12.890Z,18.23
2022-08-22T01:59:34.959Z,18.18
2022-08-22T02:03:01.569Z,18.14
2022-08-22T02:06:14.625Z,18.22
2022-08-22T02:09:46.677Z,18.24
2022-08-22T02:13:20.880Z,18.24
2022-08-22T02:16:38.136Z,18.27
2022-08-22T02:19:56.844Z,18.30
2022-08-22T02:23:50.944Z,18.31
2022-08-22T02:27:11.924Z,18.34
2022-08-22T02:30:22.679Z,18.39
2022-08-22T02:33:34.064Z,18.39
2022-08-22T02:36:50.698Z,18.39
2022-08-22T02:40:04.530Z,18.37
2022-08-22T02:43:19.052Z,18.33
2022-08-22T02:46:50.436Z,18.27
2022-08-22T02:50:12.899Z,18.20
2022-08-22T02:53:32.472Z,18.16
2022-08-22T02:56:43.976Z,18.06
2022-08-22T03:00:31.771Z,17.97
2022-08-22T03:03:42.487Z,17.87
2022-08-22T03:07:26.369Z,17.79
2022-08-22T03:10:36.619Z,17.73
2022-08-22T03:14:10.244Z,17.67
2022-08-22T03:17:45.183Z,17.64
2022-08-22T03:20:59.183Z,17.59
2022-08-22T03:24:57.713Z,17.57
2022-08-22T03:28:09.734Z,17.54
2022-08-22T03:32:00.602Z,17.51
2022-08-22T03:35:13.554Z,17.62
2022-08-22T03:38:38.478Z,17.76
2022-08-22T03:41:57.441Z,17.87
2022-08-22T03:45:21.857Z,17.97
2022-08-22T03:48:55.380Z,18.03
2022-08-22T03:52:10.971Z,18.01
2022-08-22T03:55:54.293Z,18.08
2022-08-22T03:59:10.313Z,18.10
2022-08-22T04:02:41.934Z,18.09
2022-08-22T04:05:56.955Z,18.16
2022-08-22T04:09:29.134Z,18.23
2022-08-22T04:12:53.759Z,18.27
2022-08-22T04:16:35.316Z,18.35
2022-08-22T04:20:03.791Z,18.39
2022-08-22T04:23:44.322Z,18.39
2022-08-22T04:27:04.601Z,18.50
2022-08-22T04:30:18.603Z,18.58
2022-08-22T04:33:25.366Z,18.67
2022-08-22T04:36:41.434Z,18.70
2022-08-22T04:39:59.760Z,18.72
2022-08-22T04:43:17.883Z,18.79
2022-08-22T04:46:39.381Z,18.87
2022-08-22T04:50:04.457Z,18.96
2022-08-22T04:53:39.412Z,19.13
2022-08-22T04:57:14.229Z,18.98
2022-08-22T05:00:17.950Z,19.05
2022-08-22T05:03:25.254Z,19.14
2022-08-22T05:06:32.864Z,19.24
2022-08-22T05:09:39.193Z,19.28
2022-08-22T05:12:50.618Z,19.28
2022-08-22T05:15:59.361Z,19.52
2022-08-22T05:19:27.025Z,19.66
2022-08-22T05:22:40.775Z,19.90
2022-08-22T05:25:49.079Z,20.10
2022-08-22T05:29:00.883Z,20.07
2022-08-22T05:32:10.817Z,19.99
2022-08-22T05:35:16.825Z,19.86
2022-08-22T05:38:25.962Z,19.89
2022-08-22T05:41:33.098Z,19.91
2022-08-22T05:44:38.257Z,20.05
2022-08-22T05:47:55.146Z,20.07
2022-08-22T05:51:14.827Z,20.31
2022-08-22T05:54:33.705Z,20.57
2022-08-22T05:57:47.968Z,20.63
2022-08-22T06:01:02.209Z,20.81
2022-08-22T06:04:27.569Z,21.08
2022-08-22T06:07:50.722Z,21.28
2022-08-22T06:10:57.536Z,21.19
2022-08-22T06:14:14.651Z,21.36
2022-08-22T06:17:44.820Z,21.51
2022-08-22T06:21:12.303Z,21.44
2022-08-22T06:24:30.319Z,21.66
2022-08-22T06:27:34.840Z,21.83
2022-08-22T06:30:40.179Z,21.71
2022-08-22T06:33:54.972Z,21.93
2022-08-22T06:37:07.977Z,22.12
2022-08-22T06:40:16.965Z,22.23
2022-08-22T06:43:22.520Z,22.30
2022-08-22T06:46:30.972Z,22.51
2022-08-22T06:49:36.755Z,22.69
2022-08-22T06:52:57.537Z,23.02
2022-08-22T06:56:25.455Z,23.72
2022-08-22T06:59:35.754Z,23.63
2022-08-22T07:02:47.256Z,23.53
2022-08-22T07:06:23.370Z,23.49
2022-08-22T07:09:51.479Z,23.51
2022-08-22T07:12:59.072Z,23.55
2022-08-22T07:16:07.755Z,23.52
2022-08-22T07:19:33.533Z,23.63
2022-08-22T07:22:39.643Z,23.79
2022-08-22T07:26:15.597Z,23.89
2022-08-22T07:29:38.250Z,24.55
2022-08-22T07:33:26.423Z,24.07
2022-08-22T07:36:47.108Z,24.63
2022-08-22T07:40:25.356Z,24.67
2022-08-22T07:43:45.531Z,23.85
2022-08-22T07:46:57.008Z,24.48
2022-08-22T07:50:07.238Z,24.16
2022-08-22T07:53:26.035Z,24.57
2022-08-22T07:56:31.909Z,25.47
2022-08-22T07:59:39.980Z,25.56
2022-08-22T08:02:53.777Z,24.91
2022-08-22T08:05:57.815Z,24.71
2022-08-22T08:09:22.797Z,24.47
2022-08-22T08:13:01.905Z,24.62
2022-08-22T08:16:18.307Z,24.52
2022-08-22T08:19:22.097Z,24.37
2022-08-22T08:22:50.768Z,24.14
2022-08-22T08:26:07.166Z,23.75
2022-08-22T08:29:10.639Z,23.74
2022-08-22T08:32:19.020Z,23.77
2022-08-22T08:36:02.092Z,23.75
2022-08-22T08:39:14.126Z,23.92
2022-08-22T08:43:18.650Z,24.06
2022-08-22T08:47:22.000Z,24.13
2022-08-22T08:50:43.977Z,24.08
2022-08-22T08:54:45.032Z,23.89
2022-08-22T08:58:51.715Z,23.80
2022-08-22T09:02:27.051Z,23.80
2022-08-22T09:05:48.940Z,24.19
2022-08-22T09:09:13.971Z,24.52
2022-08-22T09:13:11.670Z,24.90
2022-08-22T09:16:36.999Z,24.43
2022-08-22T09:20:19.575Z,24.85
2022-08-22T09:24:17.994Z,25.34
2022-08-22T09:27:55.632Z,25.16
2022-08-22T09:31:32.886Z,24.90
2022-08-22T09:34:51.993Z,24.95
2022-08-22T09:38:04.453Z,25.08
2022-08-22T09:41:46.815Z,25.24
2022-08-22T09:45:48.452Z,24.79
2022-08-22T09:50:19.725Z,24.55
2022-08-22T09:54:40.801Z,24.32
2022-08-22T09:58:49.292Z,24.04
2022-08-22T10:03:41.931Z,23.87
2022-08-22T10:08:15.156Z,23.92
2022-08-22T10:12:05.011Z,24.48
2022-08-22T10:15:47.809Z,24.68
2022-08-22T10:19:41.217Z,25.14
2022-08-22T10:23:24.117Z,25.32
2022-08-22T10:26:39.242Z,25.38
2022-08-22T10:30:07.036Z,26.13
2022-08-22T10:33:46.907Z,26.30
2022-08-22T10:38:01.652Z,27.23
2022-08-22T10:41:58.938Z,27.70
2022-08-22T10:45:41.055Z,27.55
2022-08-22T10:49:10.741Z,27.49
2022-08-22T10:52:33.104Z,27.65
2022-08-22T10:55:46.999Z,27.82
2022-08-22T10:59:06.024Z,27.93
2022-08-22T11:02:32.625Z,28.22
2022-08-22T11:05:43.261Z,28.20
2022-08-22T11:09:43.154Z,28.12
2022-08-22T11:13:25.603Z,28.12
2022-08-22T11:16:47.040Z,27.79
2022-08-22T11:20:19.861Z,28.13
2022-08-22T11:23:33.374Z,28.09
2022-08-22T11:27:02.655Z,27.92
2022-08-22T11:30:18.743Z,28.07
2022-08-22T11:33:46.460Z,28.53
2022-08-22T11:37:43.233Z,28.69
2022-08-22T11:41:00.021Z,28.50
2022-08-22T11:44:22.481Z,28.30
2022-08-22T11:47:44.513Z,28.63
2022-08-22T11:51:14.827Z,28.71
2022-08-22T11:54:32.712Z,29.27
2022-08-22T11:57:44.813Z,30.23
2022-08-22T12:00:52.597Z,30.20
2022-08-22T12:04:03.453Z,30.49
2022-08-22T12:07:49.053Z,30.53
2022-08-22T12:12:00.422Z,30.43
2022-08-22T12:15:30.650Z,31.35
2022-08-22T12:18:52.714Z,31.20
2022-08-22T12:22:33.674Z,30.95
2022-08-22T12:25:39.595Z,30.79
2022-08-22T12:29:03.746Z,30.06
2022-08-22T12:32:32.122Z,29.80
2022-08-22T12:36:17.914Z,29.22
2022-08-22T12:39:41.152Z,28.61
2022-08-22T12:42:58.675Z,28.64
2022-08-22T12:46:38.567Z,28.20
2022-08-22T12:50:13.125Z,28.02
2022-08-22T12:53:34.023Z,27.28
2022-08-22T12:57:35.413Z,27.00
2022-08-22T13:00:47.428Z,26.29
2022-08-22T13:04:01.159Z,26.62
2022-08-22T13:07:10.529Z,25.88
2022-08-22T13:10:17.433Z,25.64
2022-08-22T13:13:56.717Z,26.13
2022-08-22T13:17:15.237Z,25.92
2022-08-22T13:20:41.793Z,26.60
2022-08-22T13:23:54.011Z,26.64
2022-08-22T13:27:05.785Z,25.98
2022-08-22T13:30:17.342Z,25.41
2022-08-22T13:33:33.486Z,25.26
2022-08-22T13:36:51.675Z,25.58
2022-08-22T13:40:08.949Z,25.81
2022-08-22T13:43:38.379Z,25.35
2022-08-22T13:47:13.186Z,26.17
2022-08-22T13:50:37.610Z,25.68
2022-08-22T13:54:12.543Z,26.15
2022-08-22T13:57:43.223Z,26.00
2022-08-22T14:01:43.884Z,24.91
2022-08-22T14:05:14.165Z,25.57
2022-08-22T14:08:28.565Z,25.41
2022-08-22T14:11:43.606Z,25.36
2022-08-22T14:14:56.851Z,25.76
2022-08-22T14:18:45.719Z,25.67
2022-08-22T14:22:32.514Z,25.86
2022-08-22T14:25:44.356Z,25.24
2022-08-22T14:28:56.858Z,24.38
2022-08-22T14:32:12.311Z,24.47
2022-08-22T14:35:52.823Z,24.03
2022-08-22T14:39:06.632Z,23.95
2022-08-22T14:42:20.081Z,24.14
2022-08-22T14:45:35.568Z,24.26
2022-08-22T14:49:16.557Z,24.64
2022-08-22T14:52:35.919Z,24.60
2022-08-22T14:55:41.964Z,24.52
2022-08-22T14:58:53.919Z,24.07
2022-08-22T15:02:13.048Z,24.37
2022-08-22T15:05:23.507Z,24.26
2022-08-22T15:08:46.431Z,24.13
2022-08-22T15:12:46.938Z,24.26
2022-08-22T15:16:46.180Z,24.31
2022-08-22T15:19:55.423Z,23.82
2022-08-22T15:23:20.886Z,24.17
2022-08-22T15:26:39.770Z,24.12
2022-08-22T15:30:06.780Z,23.90
2022-08-22T15:33:54.863Z,23.81
2022-08-22T15:37:09.944Z,23.80
2022-08-22T15:40:40.893Z,23.92
2022-08-22T15:43:49.318Z,23.66
2022-08-22T15:47:12.005Z,23.51
2022-08-22T15:51:05.355Z,23.67
2022-08-22T15:54:54.017Z,23.62
2022-08-22T15:58:24.815Z,23.49
2022-08-22T16:01:43.309Z,23.20
2022-08-22T16:05:36.923Z,23.06
2022-08-22T16:09:03.404Z,23.12
2022-08-22T16:12:28.683Z,23.17
2022-08-22T16:16:32.353Z,23.25
2022-08-22T16:19:39.965Z,23.22
2022-08-22T16:22:57.583Z,22.63
2022-08-22T16:26:30.496Z,22.73
2022-08-22T16:29:42.347Z,22.28
2022-08-22T16:32:54.637Z,22.53
2022-08-22T16:36:21.582Z,22.37
2022-08-22T16:39:58.925Z,22.32
2022-08-22T16:43:23.584Z,22.26
2022-08-22T16:47:22.142Z,22.22
2022-08-22T16:51:05.829Z,22.22
2022-08-22T16:54:46.426Z,22.16
2022-08-22T16:58:09.389Z,22.00
2022-08-22T17:01:42.698Z,21.87
2022-08-22T17:05:22.724Z,21.85
2022-08-22T17:08:55.318Z,21.84
2022-08-22T17:12:16.747Z,21.71
2022-08-22T17:15:39.507Z,21.68
2022-08-22T17:19:28.630Z,21.58
2022-08-22T17:22:41.682Z,21.33
2022-08-22T17:25:53.436Z,21.18
2022-08-22T17:29:38.128Z,21.03
2022-08-22T17:33:19.892Z,20.94
2022-08-22T17:37:11.712Z,20.86
2022-08-22T17:40:36.206Z,20.77
2022-08-22T17:44:14.757Z,20.76
2022-08-22T17:47:49.509Z,20.74
2022-08-22T17:51:28.357Z,20.72
2022-08-22T17:54:49.169Z,20.66
2022-08-22T17:58:31.860Z,20.67
2022-08-22T18:01:56.416Z,20.61
2022-08-22T18:05:19.515Z,20.65
2022-08-22T18:12:51.703Z,20.62
2022-08-22T18:16:47.800Z,20.57
2022-08-22T18:20:05.912Z,20.63
2022-08-22T18:23:35.432Z,20.64
2022-08-22T18:27:08.287Z,20.70
2022-08-22T18:30:48.197Z,20.64
2022-08-22T18:34:05.135Z,20.63
2022-08-22T18:37:17.571Z,20.65
2022-08-22T18:40:30.526Z,20.62
2022-08-22T18:43:57.216Z,20.66
2022-08-22T18:47:15.970Z,20.64
2022-08-22T18:50:32.990Z,20.65
2022-08-22T18:53:46.150Z,20.63
2022-08-22T18:57:23.510Z,20.63
2022-08-22T19:00:54.962Z,20.62
2022-08-22T19:04:25.459Z,20.62
2022-08-22T19:07:55.486Z,20.62
2022-08-22T19:11:21.589Z,20.62
2022-08-22T19:14:43.676Z,20.62
2022-08-22T19:18:10.377Z,20.61
2022-08-22T19:21:54.660Z,20.65
2022-08-22T19:25:11.625Z,20.69
2022-08-22T19:28:14.358Z,20.71
2022-08-22T19:31:25.087Z,20.69
2022-08-22T19:34:32.673Z,20.74
2022-08-22T19:37:52.957Z,20.73
2022-08-22T19:41:03.425Z,20.70
2022-08-22T19:44:37.553Z,20.71
2022-08-22T19:47:42.710Z,20.73
2022-08-22T19:50:45.281Z,20.75
2022-08-22T19:54:22.530Z,20.72
2022-08-22T19:57:55.503Z,20.74
2022-08-22T20:01:04.311Z,20.74
2022-08-22T20:04:27.063Z,20.62
2022-08-22T20:07:32.525Z,20.58
2022-08-22T20:10:48.192Z,20.55
2022-08-22T20:13:50.971Z,20.49
2022-08-22T20:17:05.762Z,20.47
2022-08-22T20:20:19.813Z,20.41
2022-08-22T20:23:41.290Z,20.35
2022-08-22T20:27:12.628Z,20.37
2022-08-22T20:30:40.749Z,20.37
2022-08-22T20:33:47.847Z,20.33
2022-08-22T20:37:15.794Z,20.41
2022-08-22T20:40:54.801Z,20.41
2022-08-22T20:43:57.338Z,20.38
2022-08-22T20:47:19.549Z,20.28
2022-08-22T20:50:28.810Z,20.30
2022-08-22T20:53:32.306Z,20.37
2022-08-22T20:56:37.200Z,20.35
2022-08-22T20:59:49.253Z,20.30
2022-08-22T21:03:02.405Z,20.26
2022-08-22T21:06:15.960Z,20.21
2022-08-22T21:09:40.167Z,20.22
2022-08-22T21:12:43.328Z,20.09
2022-08-22T21:15:56.174Z,20.06
2022-08-22T21:19:01.994Z,20.11
2022-08-22T21:22:34.101Z,20.19
2022-08-22T21:26:09.486Z,20.19
2022-08-22T21:29:14.660Z,20.13
2022-08-22T21:32:22.828Z,20.04
2022-08-22T21:35:33.325Z,20.02
2022-08-22T21:38:37.234Z,20.01
2022-08-22T21:41:44.096Z,20.00
2022-08-22T21:44:58.948Z,20.07
2022-08-22T21:48:02.530Z,20.12
2022-08-22T21:51:44.629Z,20.10
2022-08-22T21:54:48.233Z,20.13
2022-08-22T21:58:08.892Z,20.10
2022-08-22T22:01:34.905Z,20.13
2022-08-22T22:04:38.335Z,20.16
2022-08-22T22:07:43.317Z,20.17
2022-08-22T22:10:49.488Z,20.19
2022-08-22T22:14:14.258Z,20.18
2022-08-22T22:17:21.931Z,20.12
2022-08-22T22:20:28.687Z,20.15
2022-08-22T22:23:54.703Z,20.14
2022-08-22T22:27:02.744Z,20.17
2022-08-22T22:30:10.247Z,20.16
2022-08-22T22:33:13.068Z,20.10
2022-08-22T22:36:24.242Z,20.03
2022-08-22T22:39:29.941Z,20.06
2022-08-22T22:42:33.138Z,20.06
2022-08-22T22:45:36.254Z,20.05
2022-08-22T22:48:42.036Z,20.11
2022-08-22T22:51:46.901Z,20.09
2022-08-22T22:54:51.097Z,20.09
2022-08-22T22:57:58.812Z,20.10
2022-08-22T23:01:10.702Z,20.17
2022-08-22T23:04:16.176Z,20.15
2022-08-22T23:07:24.566Z,20.13
2022-08-22T23:10:52.724Z,20.11
2022-08-22T23:14:12.948Z,20.14
2022-08-22T23:17:18.417Z,20.19
2022-08-22T23:20:21.667Z,20.15
2022-08-22T23:23:26.677Z,20.15
2022-08-22T23:26:30.305Z,20.13
2022-08-22T23:29:33.087Z,20.15
2022-08-22T23:32:37.551Z,20.09
2022-08-22T23:35:40.079Z,20.12
2022-08-22T23:38:48.833Z,19.99
2022-08-22T23:41:51.992Z,20.06
2022-08-22T23:44:59.749Z,19.85
2022-08-22T23:48:03.905Z,20.00
2022-08-22T23:51:09.037Z,19.98
2022-08-22T23:54:12.063Z,19.95
2022-08-22T23:57:14.864Z,19.92
